sensor_id;sensor_type;location;lat;lon;timestamp;temperature;humidity
8002;DHT22;4046;48.774;8.732;2023-05-24T00:01:40;20.50;99.90
8002;DHT22;4046;48.774;8.732;2023-05-24T00:04:07;20.40;99.90
8002;DHT22;4046;48.774;8.732;2023-05-24T00:06:35;20.50;99.90
8002;DHT22;4046;48.774;8.732;2023-05-24T00:09:04;20.40;99.90
8002;DHT22;4046;48.774;8.732;2023-05-24T00:11:31;20.40;99.90
8002;DHT22;4046;48.774;8.732;2023-05-24T00:13:57;20.40;99.90
8002;DHT22;4046;48.774;8.732;2023-05-24T00:16:23;20.40;99.90
8002;DHT22;4046;48.774;8.732;2023-05-24T00:18:49;20.40;99.90
8002;DHT22;4046;48.774;8.732;2023-05-24T00:21:17;20.40;99.90
8002;DHT22;4046;48.774;8.732;2023-05-24T00:23:43;20.40;99.90
8002;DHT22;4046;48.774;8.732;2023-05-24T00:26:12;20.40;99.90
8002;DHT22;4046;48.774;8.732;2023-05-24T00:28:38;20.40;99.90
8002;DHT22;4046;48.774;8.732;2023-05-24T00:31:05;20.40;99.90
8002;DHT22;4046;48.774;8.732;2023-05-24T00:33:33;20.40;99.90
8002;DHT22;4046;48.774;8.732;2023-05-24T00:35:59;20.40;99.90
8002;DHT22;4046;48.774;8.732;2023-05-24T00:38:25;20.40;99.90
8002;DHT22;4046;48.774;8.732;2023-05-24T00:40:52;20.40;99.90
8002;DHT22;4046;48.774;8.732;2023-05-24T00:43:22;20.40;99.90
8002;DHT22;4046;48.774;8.732;2023-05-24T00:46:17;20.40;99.90
8002;DHT22;4046;48.774;8.732;2023-05-24T00:48:52;20.40;99.90
8002;DHT22;4046;48.774;8.732;2023-05-24T00:51:18;20.50;99.90
8002;DHT22;4046;48.774;8.732;2023-05-24T00:53:46;20.40;99.90
8002;DHT22;4046;48.774;8.732;2023-05-24T00:56:14;20.40;99.90
8002;DHT22;4046;48.774;8.732;2023-05-24T00:58:44;20.40;99.90
8002;DHT22;4046;48.774;8.732;2023-05-24T01:01:11;20.40;99.90
8002;DHT22;4046;48.774;8.732;2023-05-24T01:03:37;20.40;99.90
8002;DHT22;4046;48.774;8.732;2023-05-24T01:06:06;20.30;99.90
8002;DHT22;4046;48.774;8.732;2023-05-24T01:11:53;20.30;99.90
8002;DHT22;4046;48.774;8.732;2023-05-24T01:14:44;20.30;99.90
8002;DHT22;4046;48.774;8.732;2023-05-24T01:17:20;20.30;99.90
8002;DHT22;4046;48.774;8.732;2023-05-24T01:20:02;20.40;99.90
8002;DHT22;4046;48.774;8.732;2023-05-24T01:22:41;20.30;99.90
8002;DHT22;4046;48.774;8.732;2023-05-24T01:28:12;20.30;99.90
8002;DHT22;4046;48.774;8.732;2023-05-24T01:30:40;20.30;99.90
8002;DHT22;4046;48.774;8.732;2023-05-24T01:33:06;20.30;99.90
8002;DHT22;4046;48.774;8.732;2023-05-24T01:35:32;20.30;99.90
8002;DHT22;4046;48.774;8.732;2023-05-24T01:38:05;20.30;99.90
8002;DHT22;4046;48.774;8.732;2023-05-24T01:40:32;20.30;99.90
8002;DHT22;4046;48.774;8.732;2023-05-24T01:43:04;20.30;99.90
8002;DHT22;4046;48.774;8.732;2023-05-24T01:45:39;20.30;99.90
8002;DHT22;4046;48.774;8.732;2023-05-24T01:48:18;20.30;99.90
8002;DHT22;4046;48.774;8.732;2023-05-24T01:50:48;20.30;99.90
8002;DHT22;4046;48.774;8.732;2023-05-24T01:53:18;20.30;99.90
8002;DHT22;4046;48.774;8.732;2023-05-24T01:55:47;20.30;99.90
8002;DHT22;4046;48.774;8.732;2023-05-24T01:58:18;20.30;99.90
8002;DHT22;4046;48.774;8.732;2023-05-24T02:00:46;20.40;99.90
8002;DHT22;4046;48.774;8.732;2023-05-24T02:03:13;20.30;99.90
8002;DHT22;4046;48.774;8.732;2023-05-24T02:05:44;20.40;99.90
8002;DHT22;4046;48.774;8.732;2023-05-24T02:08:10;20.20;99.90
8002;DHT22;4046;48.774;8.732;2023-05-24T02:10:38;20.30;99.90
8002;DHT22;4046;48.774;8.732;2023-05-24T02:13:05;20.20;99.90
8002;DHT22;4046;48.774;8.732;2023-05-24T02:15:31;20.20;99.90
8002;DHT22;4046;48.774;8.732;2023-05-24T02:17:58;20.20;99.90
8002;DHT22;4046;48.774;8.732;2023-05-24T02:20:29;20.20;99.90
8002;DHT22;4046;48.774;8.732;2023-05-24T02:23:02;20.20;99.90
8002;DHT22;4046;48.774;8.732;2023-05-24T02:25:29;20.20;99.90
8002;DHT22;4046;48.774;8.732;2023-05-24T02:27:57;20.20;99.90
8002;DHT22;4046;48.774;8.732;2023-05-24T02:30:23;20.20;99.90
8002;DHT22;4046;48.774;8.732;2023-05-24T02:32:50;20.20;99.90
8002;DHT22;4046;48.774;8.732;2023-05-24T02:35:16;20.20;99.90
8002;DHT22;4046;48.774;8.732;2023-05-24T02:37:42;20.20;99.90
8002;DHT22;4046;48.774;8.732;2023-05-24T02:40:09;20.20;99.90
8002;DHT22;4046;48.774;8.732;2023-05-24T02:42:35;20.20;99.90
8002;DHT22;4046;48.774;8.732;2023-05-24T02:45:01;20.20;99.90
8002;DHT22;4046;48.774;8.732;2023-05-24T02:47:33;20.20;99.90
8002;DHT22;4046;48.774;8.732;2023-05-24T02:49:59;20.20;99.90
8002;DHT22;4046;48.774;8.732;2023-05-24T02:52:25;20.10;99.80
8002;DHT22;4046;48.774;8.732;2023-05-24T02:54:52;20.20;99.90
8002;DHT22;4046;48.774;8.732;2023-05-24T02:57:18;20.20;99.90
8002;DHT22;4046;48.774;8.732;2023-05-24T02:59:44;20.20;99.90
8002;DHT22;4046;48.774;8.732;2023-05-24T03:02:11;20.20;99.90
8002;DHT22;4046;48.774;8.732;2023-05-24T03:04:38;20.20;99.80
8002;DHT22;4046;48.774;8.732;2023-05-24T03:07:04;20.20;99.90
8002;DHT22;4046;48.774;8.732;2023-05-24T03:09:31;20.20;99.90
8002;DHT22;4046;48.774;8.732;2023-05-24T03:11:57;20.20;99.90
8002;DHT22;4046;48.774;8.732;2023-05-24T03:14:23;20.20;99.80
8002;DHT22;4046;48.774;8.732;2023-05-24T03:16:49;20.20;99.90
8002;DHT22;4046;48.774;8.732;2023-05-24T03:19:16;20.10;99.80
8002;DHT22;4046;48.774;8.732;2023-05-24T03:21:43;20.10;99.80
8002;DHT22;4046;48.774;8.732;2023-05-24T03:24:09;20.20;99.80
8002;DHT22;4046;48.774;8.732;2023-05-24T03:26:35;20.20;99.80
8002;DHT22;4046;48.774;8.732;2023-05-24T03:29:01;20.10;99.80
8002;DHT22;4046;48.774;8.732;2023-05-24T03:31:27;20.10;99.80
8002;DHT22;4046;48.774;8.732;2023-05-24T03:33:54;20.10;99.80
8002;DHT22;4046;48.774;8.732;2023-05-24T03:36:21;20.10;99.80
8002;DHT22;4046;48.774;8.732;2023-05-24T03:38:47;20.10;99.80
8002;DHT22;4046;48.774;8.732;2023-05-24T03:41:13;20.10;99.80
8002;DHT22;4046;48.774;8.732;2023-05-24T03:43:42;20.10;99.80
8002;DHT22;4046;48.774;8.732;2023-05-24T03:46:08;20.10;99.80
8002;DHT22;4046;48.774;8.732;2023-05-24T03:48:36;20.10;99.70
8002;DHT22;4046;48.774;8.732;2023-05-24T03:51:03;20.10;99.80
8002;DHT22;4046;48.774;8.732;2023-05-24T03:53:29;20.10;99.80
8002;DHT22;4046;48.774;8.732;2023-05-24T03:55:55;20.10;99.80
8002;DHT22;4046;48.774;8.732;2023-05-24T03:58:22;20.10;99.70
8002;DHT22;4046;48.774;8.732;2023-05-24T04:00:48;20.10;99.70
8002;DHT22;4046;48.774;8.732;2023-05-24T04:03:14;20.10;99.70
8002;DHT22;4046;48.774;8.732;2023-05-24T04:05:40;20.10;99.70
8002;DHT22;4046;48.774;8.732;2023-05-24T04:08:07;20.10;99.70
8002;DHT22;4046;48.774;8.732;2023-05-24T04:10:33;20.10;99.70
8002;DHT22;4046;48.774;8.732;2023-05-24T04:12:59;20.10;99.70
8002;DHT22;4046;48.774;8.732;2023-05-24T04:15:25;20.10;99.70
8002;DHT22;4046;48.774;8.732;2023-05-24T04:17:51;20.10;99.70
8002;DHT22;4046;48.774;8.732;2023-05-24T04:20:20;20.10;99.70
8002;DHT22;4046;48.774;8.732;2023-05-24T04:22:50;20.00;99.70
8002;DHT22;4046;48.774;8.732;2023-05-24T04:25:17;20.10;99.70
8002;DHT22;4046;48.774;8.732;2023-05-24T04:27:43;20.00;99.70
8002;DHT22;4046;48.774;8.732;2023-05-24T04:30:10;20.00;99.60
8002;DHT22;4046;48.774;8.732;2023-05-24T04:32:37;20.00;99.60
8002;DHT22;4046;48.774;8.732;2023-05-24T04:35:05;20.00;99.60
8002;DHT22;4046;48.774;8.732;2023-05-24T04:37:33;20.00;99.70
8002;DHT22;4046;48.774;8.732;2023-05-24T04:39:59;20.00;99.60
8002;DHT22;4046;48.774;8.732;2023-05-24T04:42:25;20.00;99.70
8002;DHT22;4046;48.774;8.732;2023-05-24T04:44:57;20.00;99.60
8002;DHT22;4046;48.774;8.732;2023-05-24T04:47:24;20.00;99.60
8002;DHT22;4046;48.774;8.732;2023-05-24T04:49:50;20.00;99.60
8002;DHT22;4046;48.774;8.732;2023-05-24T04:52:17;20.00;99.60
8002;DHT22;4046;48.774;8.732;2023-05-24T04:54:44;20.10;99.60
8002;DHT22;4046;48.774;8.732;2023-05-24T04:57:10;20.00;99.60
8002;DHT22;4046;48.774;8.732;2023-05-24T04:59:36;20.00;99.60
8002;DHT22;4046;48.774;8.732;2023-05-24T05:02:02;20.00;99.60
8002;DHT22;4046;48.774;8.732;2023-05-24T05:04:29;20.00;99.60
8002;DHT22;4046;48.774;8.732;2023-05-24T05:06:56;20.00;99.50
8002;DHT22;4046;48.774;8.732;2023-05-24T05:09:24;20.00;99.60
8002;DHT22;4046;48.774;8.732;2023-05-24T05:11:51;20.00;99.60
8002;DHT22;4046;48.774;8.732;2023-05-24T05:14:17;20.00;99.60
8002;DHT22;4046;48.774;8.732;2023-05-24T05:16:43;20.00;99.50
8002;DHT22;4046;48.774;8.732;2023-05-24T05:19:11;20.00;99.50
8002;DHT22;4046;48.774;8.732;2023-05-24T05:21:37;20.00;99.60
8002;DHT22;4046;48.774;8.732;2023-05-24T05:24:06;20.00;99.50
8002;DHT22;4046;48.774;8.732;2023-05-24T05:26:33;20.00;99.60
8002;DHT22;4046;48.774;8.732;2023-05-24T05:29:00;20.00;99.50
8002;DHT22;4046;48.774;8.732;2023-05-24T05:31:26;20.00;99.50
8002;DHT22;4046;48.774;8.732;2023-05-24T05:33:54;20.20;99.60
8002;DHT22;4046;48.774;8.732;2023-05-24T05:36:20;20.00;99.50
8002;DHT22;4046;48.774;8.732;2023-05-24T05:38:47;20.00;99.50
8002;DHT22;4046;48.774;8.732;2023-05-24T05:41:13;20.00;99.50
8002;DHT22;4046;48.774;8.732;2023-05-24T05:43:39;20.00;99.50
8002;DHT22;4046;48.774;8.732;2023-05-24T05:46:05;20.00;99.50
8002;DHT22;4046;48.774;8.732;2023-05-24T05:48:32;20.00;99.50
8002;DHT22;4046;48.774;8.732;2023-05-24T05:50:58;20.00;99.50
8002;DHT22;4046;48.774;8.732;2023-05-24T05:53:24;20.00;99.50
8002;DHT22;4046;48.774;8.732;2023-05-24T05:55:51;20.00;99.40
8002;DHT22;4046;48.774;8.732;2023-05-24T05:58:20;20.00;99.50
8002;DHT22;4046;48.774;8.732;2023-05-24T06:00:46;20.00;99.40
8002;DHT22;4046;48.774;8.732;2023-05-24T06:03:13;20.00;99.40
8002;DHT22;4046;48.774;8.732;2023-05-24T06:05:40;20.00;99.40
8002;DHT22;4046;48.774;8.732;2023-05-24T06:08:06;20.00;99.40
8002;DHT22;4046;48.774;8.732;2023-05-24T06:10:33;20.00;99.40
8002;DHT22;4046;48.774;8.732;2023-05-24T06:13:01;20.00;99.40
8002;DHT22;4046;48.774;8.732;2023-05-24T06:15:30;20.10;99.40
8002;DHT22;4046;48.774;8.732;2023-05-24T06:17:59;20.10;99.40
8002;DHT22;4046;48.774;8.732;2023-05-24T06:20:26;20.10;99.20
8002;DHT22;4046;48.774;8.732;2023-05-24T06:22:55;20.20;97.90
8002;DHT22;4046;48.774;8.732;2023-05-24T06:25:22;20.10;98.10
8002;DHT22;4046;48.774;8.732;2023-05-24T06:27:49;20.20;98.20
8002;DHT22;4046;48.774;8.732;2023-05-24T06:30:17;20.10;98.20
8002;DHT22;4046;48.774;8.732;2023-05-24T06:32:43;20.10;98.30
8002;DHT22;4046;48.774;8.732;2023-05-24T06:35:10;20.10;98.40
8002;DHT22;4046;48.774;8.732;2023-05-24T06:37:36;20.10;98.40
8002;DHT22;4046;48.774;8.732;2023-05-24T06:40:05;20.10;98.50
8002;DHT22;4046;48.774;8.732;2023-05-24T06:42:32;20.10;98.50
8002;DHT22;4046;48.774;8.732;2023-05-24T06:44:58;20.10;98.60
8002;DHT22;4046;48.774;8.732;2023-05-24T06:47:25;20.10;98.60
8002;DHT22;4046;48.774;8.732;2023-05-24T06:49:51;20.10;98.70
8002;DHT22;4046;48.774;8.732;2023-05-24T06:52:18;20.10;98.70
8002;DHT22;4046;48.774;8.732;2023-05-24T06:54:44;20.20;98.80
8002;DHT22;4046;48.774;8.732;2023-05-24T06:57:11;20.10;99.10
8002;DHT22;4046;48.774;8.732;2023-05-24T06:59:39;20.20;98.80
8002;DHT22;4046;48.774;8.732;2023-05-24T07:02:06;20.10;98.80
8002;DHT22;4046;48.774;8.732;2023-05-24T07:04:33;20.20;98.90
8002;DHT22;4046;48.774;8.732;2023-05-24T07:07:00;20.20;98.90
8002;DHT22;4046;48.774;8.732;2023-05-24T07:09:27;20.20;99.00
8002;DHT22;4046;48.774;8.732;2023-05-24T07:11:54;20.20;99.00
8002;DHT22;4046;48.774;8.732;2023-05-24T07:14:20;20.20;99.00
8002;DHT22;4046;48.774;8.732;2023-05-24T07:16:48;20.10;99.00
8002;DHT22;4046;48.774;8.732;2023-05-24T07:19:14;20.20;99.10
8002;DHT22;4046;48.774;8.732;2023-05-24T07:21:43;20.20;99.10
8002;DHT22;4046;48.774;8.732;2023-05-24T07:24:10;20.20;99.10
8002;DHT22;4046;48.774;8.732;2023-05-24T07:26:36;20.20;99.10
8002;DHT22;4046;48.774;8.732;2023-05-24T07:29:03;20.20;99.00
8002;DHT22;4046;48.774;8.732;2023-05-24T07:31:29;20.20;99.00
8002;DHT22;4046;48.774;8.732;2023-05-24T07:33:57;20.20;99.00
8002;DHT22;4046;48.774;8.732;2023-05-24T07:36:24;20.40;99.10
8002;DHT22;4046;48.774;8.732;2023-05-24T07:38:51;20.20;99.00
8002;DHT22;4046;48.774;8.732;2023-05-24T07:41:18;20.20;99.00
8002;DHT22;4046;48.774;8.732;2023-05-24T07:43:47;20.20;99.00
8002;DHT22;4046;48.774;8.732;2023-05-24T07:46:14;20.20;99.00
8002;DHT22;4046;48.774;8.732;2023-05-24T07:48:40;20.30;99.00
8002;DHT22;4046;48.774;8.732;2023-05-24T07:51:07;20.30;99.00
8002;DHT22;4046;48.774;8.732;2023-05-24T07:53:33;20.30;99.00
8002;DHT22;4046;48.774;8.732;2023-05-24T07:55:59;20.30;99.10
8002;DHT22;4046;48.774;8.732;2023-05-24T07:58:26;20.30;99.10
8002;DHT22;4046;48.774;8.732;2023-05-24T08:00:53;20.30;99.00
8002;DHT22;4046;48.774;8.732;2023-05-24T08:03:19;20.30;99.00
8002;DHT22;4046;48.774;8.732;2023-05-24T08:05:46;20.30;98.90
8002;DHT22;4046;48.774;8.732;2023-05-24T08:08:12;20.30;98.90
8002;DHT22;4046;48.774;8.732;2023-05-24T08:10:39;20.30;98.90
8002;DHT22;4046;48.774;8.732;2023-05-24T08:13:06;20.30;98.80
8002;DHT22;4046;48.774;8.732;2023-05-24T08:15:32;20.30;98.90
8002;DHT22;4046;48.774;8.732;2023-05-24T08:17:58;20.30;98.90
8002;DHT22;4046;48.774;8.732;2023-05-24T08:20:25;20.30;99.00
8002;DHT22;4046;48.774;8.732;2023-05-24T08:22:51;20.30;98.90
8002;DHT22;4046;48.774;8.732;2023-05-24T08:25:18;20.30;98.90
8002;DHT22;4046;48.774;8.732;2023-05-24T08:27:44;20.30;99.00
8002;DHT22;4046;48.774;8.732;2023-05-24T08:30:12;20.40;99.00
8002;DHT22;4046;48.774;8.732;2023-05-24T08:32:41;20.40;99.00
8002;DHT22;4046;48.774;8.732;2023-05-24T08:35:08;20.40;99.00
8002;DHT22;4046;48.774;8.732;2023-05-24T08:37:36;20.40;99.00
8002;DHT22;4046;48.774;8.732;2023-05-24T08:40:03;20.40;99.00
8002;DHT22;4046;48.774;8.732;2023-05-24T08:42:29;20.40;99.00
8002;DHT22;4046;48.774;8.732;2023-05-24T08:45:07;20.40;99.00
8002;DHT22;4046;48.774;8.732;2023-05-24T08:47:35;20.40;99.00
8002;DHT22;4046;48.774;8.732;2023-05-24T08:50:04;20.40;99.00
8002;DHT22;4046;48.774;8.732;2023-05-24T08:52:31;20.40;99.00
8002;DHT22;4046;48.774;8.732;2023-05-24T08:54:58;20.40;99.00
8002;DHT22;4046;48.774;8.732;2023-05-24T08:57:28;20.40;99.00
8002;DHT22;4046;48.774;8.732;2023-05-24T08:59:59;20.40;99.00
8002;DHT22;4046;48.774;8.732;2023-05-24T09:02:26;20.40;99.00
8002;DHT22;4046;48.774;8.732;2023-05-24T09:04:53;20.40;99.00
8002;DHT22;4046;48.774;8.732;2023-05-24T09:07:21;20.40;99.00
8002;DHT22;4046;48.774;8.732;2023-05-24T09:10:04;20.40;99.00
8002;DHT22;4046;48.774;8.732;2023-05-24T09:12:38;20.40;99.10
8002;DHT22;4046;48.774;8.732;2023-05-24T09:15:06;20.40;99.10
8002;DHT22;4046;48.774;8.732;2023-05-24T09:17:34;20.40;99.10
8002;DHT22;4046;48.774;8.732;2023-05-24T09:20:04;20.40;99.00
8002;DHT22;4046;48.774;8.732;2023-05-24T09:22:31;20.50;99.10
8002;DHT22;4046;48.774;8.732;2023-05-24T09:25:01;20.50;99.10
8002;DHT22;4046;48.774;8.732;2023-05-24T09:27:28;20.50;99.10
8002;DHT22;4046;48.774;8.732;2023-05-24T09:29:56;20.50;99.10
8002;DHT22;4046;48.774;8.732;2023-05-24T09:32:23;20.50;99.10
8002;DHT22;4046;48.774;8.732;2023-05-24T09:34:53;20.50;99.10
8002;DHT22;4046;48.774;8.732;2023-05-24T09:37:21;20.50;99.10
8002;DHT22;4046;48.774;8.732;2023-05-24T09:39:49;20.50;99.00
8002;DHT22;4046;48.774;8.732;2023-05-24T09:42:17;20.60;99.00
8002;DHT22;4046;48.774;8.732;2023-05-24T09:44:47;20.60;99.10
8002;DHT22;4046;48.774;8.732;2023-05-24T09:47:14;20.60;99.10
8002;DHT22;4046;48.774;8.732;2023-05-24T09:49:40;20.60;99.10
8002;DHT22;4046;48.774;8.732;2023-05-24T09:52:06;20.50;99.10
8002;DHT22;4046;48.774;8.732;2023-05-24T09:54:33;20.60;99.10
8002;DHT22;4046;48.774;8.732;2023-05-24T09:57:01;20.60;99.00
8002;DHT22;4046;48.774;8.732;2023-05-24T09:59:32;20.60;98.90
8002;DHT22;4046;48.774;8.732;2023-05-24T10:02:09;20.60;98.80
8002;DHT22;4046;48.774;8.732;2023-05-24T10:04:35;20.60;98.90
8002;DHT22;4046;48.774;8.732;2023-05-24T10:07:03;20.60;98.90
8002;DHT22;4046;48.774;8.732;2023-05-24T10:09:35;20.60;98.80
8002;DHT22;4046;48.774;8.732;2023-05-24T10:12:03;20.60;98.90
8002;DHT22;4046;48.774;8.732;2023-05-24T10:14:37;20.60;98.90
8002;DHT22;4046;48.774;8.732;2023-05-24T10:17:05;20.60;98.90
8002;DHT22;4046;48.774;8.732;2023-05-24T10:19:33;20.60;98.90
8002;DHT22;4046;48.774;8.732;2023-05-24T10:22:00;20.60;98.90
8002;DHT22;4046;48.774;8.732;2023-05-24T10:24:35;20.60;98.90
8002;DHT22;4046;48.774;8.732;2023-05-24T10:27:06;20.60;98.90
8002;DHT22;4046;48.774;8.732;2023-05-24T10:29:47;20.60;98.90
8002;DHT22;4046;48.774;8.732;2023-05-24T10:32:17;20.60;98.90
8002;DHT22;4046;48.774;8.732;2023-05-24T10:34:45;20.70;98.90
8002;DHT22;4046;48.774;8.732;2023-05-24T10:37:12;20.70;98.90
8002;DHT22;4046;48.774;8.732;2023-05-24T10:39:40;20.80;98.80
8002;DHT22;4046;48.774;8.732;2023-05-24T10:42:07;20.80;98.80
8002;DHT22;4046;48.774;8.732;2023-05-24T10:44:33;20.90;98.70
8002;DHT22;4046;48.774;8.732;2023-05-24T10:47:12;20.90;98.70
8002;DHT22;4046;48.774;8.732;2023-05-24T10:49:48;20.90;98.60
8002;DHT22;4046;48.774;8.732;2023-05-24T10:52:16;20.90;98.50
8002;DHT22;4046;48.774;8.732;2023-05-24T10:55:05;20.90;98.90
8002;DHT22;4046;48.774;8.732;2023-05-24T10:57:34;20.90;98.60
8002;DHT22;4046;48.774;8.732;2023-05-24T11:02:49;20.90;98.50
8002;DHT22;4046;48.774;8.732;2023-05-24T11:05:15;20.90;98.50
8002;DHT22;4046;48.774;8.732;2023-05-24T11:07:42;21.00;98.50
8002;DHT22;4046;48.774;8.732;2023-05-24T11:10:14;21.20;98.60
8002;DHT22;4046;48.774;8.732;2023-05-24T11:12:42;21.10;98.50
8002;DHT22;4046;48.774;8.732;2023-05-24T11:15:10;21.10;98.40
8002;DHT22;4046;48.774;8.732;2023-05-24T11:18:12;21.10;98.40
8002;DHT22;4046;48.774;8.732;2023-05-24T11:20:42;21.20;98.40
8002;DHT22;4046;48.774;8.732;2023-05-24T11:23:10;21.10;98.40
8002;DHT22;4046;48.774;8.732;2023-05-24T11:25:37;21.10;98.40
8002;DHT22;4046;48.774;8.732;2023-05-24T11:28:10;21.20;98.50
8002;DHT22;4046;48.774;8.732;2023-05-24T11:30:41;21.20;98.50
8002;DHT22;4046;48.774;8.732;2023-05-24T11:33:18;21.20;98.50
8002;DHT22;4046;48.774;8.732;2023-05-24T11:35:49;21.20;98.50
8002;DHT22;4046;48.774;8.732;2023-05-24T11:38:17;21.20;98.50
8002;DHT22;4046;48.774;8.732;2023-05-24T11:40:45;21.20;98.40
8002;DHT22;4046;48.774;8.732;2023-05-24T11:43:13;21.20;98.40
8002;DHT22;4046;48.774;8.732;2023-05-24T11:45:40;21.20;98.30
8002;DHT22;4046;48.774;8.732;2023-05-24T11:48:09;21.20;98.40
8002;DHT22;4046;48.774;8.732;2023-05-24T11:50:42;21.20;98.40
8002;DHT22;4046;48.774;8.732;2023-05-24T11:53:10;21.20;98.30
8002;DHT22;4046;48.774;8.732;2023-05-24T11:55:38;21.20;98.30
8002;DHT22;4046;48.774;8.732;2023-05-24T11:58:13;21.30;98.40
8002;DHT22;4046;48.774;8.732;2023-05-24T12:00:46;21.20;98.40
8002;DHT22;4046;48.774;8.732;2023-05-24T12:03:13;21.20;98.40
8002;DHT22;4046;48.774;8.732;2023-05-24T12:05:39;21.20;98.40
8002;DHT22;4046;48.774;8.732;2023-05-24T12:08:07;21.20;98.40
8002;DHT22;4046;48.774;8.732;2023-05-24T12:10:35;21.30;98.40
8002;DHT22;4046;48.774;8.732;2023-05-24T12:13:03;21.30;98.50
8002;DHT22;4046;48.774;8.732;2023-05-24T12:15:30;21.30;98.40
8002;DHT22;4046;48.774;8.732;2023-05-24T12:17:58;21.30;98.50
8002;DHT22;4046;48.774;8.732;2023-05-24T12:20:27;21.30;98.50
8002;DHT22;4046;48.774;8.732;2023-05-24T12:22:54;21.40;98.50
8002;DHT22;4046;48.774;8.732;2023-05-24T12:25:22;21.30;98.40
8002;DHT22;4046;48.774;8.732;2023-05-24T12:27:53;21.30;98.50
8002;DHT22;4046;48.774;8.732;2023-05-24T12:30:29;21.30;98.50
8002;DHT22;4046;48.774;8.732;2023-05-24T12:32:56;21.30;98.50
8002;DHT22;4046;48.774;8.732;2023-05-24T12:35:23;21.30;98.50
8002;DHT22;4046;48.774;8.732;2023-05-24T12:37:56;21.30;98.50
8002;DHT22;4046;48.774;8.732;2023-05-24T12:40:23;21.30;98.60
8002;DHT22;4046;48.774;8.732;2023-05-24T12:42:53;21.30;98.60
8002;DHT22;4046;48.774;8.732;2023-05-24T12:45:27;21.20;98.60
8002;DHT22;4046;48.774;8.732;2023-05-24T12:47:57;21.20;98.90
8002;DHT22;4046;48.774;8.732;2023-05-24T12:50:27;21.20;98.60
8002;DHT22;4046;48.774;8.732;2023-05-24T12:52:53;21.30;98.60
8002;DHT22;4046;48.774;8.732;2023-05-24T12:55:24;21.30;98.60
8002;DHT22;4046;48.774;8.732;2023-05-24T12:57:52;21.40;98.60
8002;DHT22;4046;48.774;8.732;2023-05-24T13:00:26;21.40;98.60
8002;DHT22;4046;48.774;8.732;2023-05-24T13:02:53;21.40;98.60
8002;DHT22;4046;48.774;8.732;2023-05-24T13:05:24;21.40;98.60
8002;DHT22;4046;48.774;8.732;2023-05-24T13:07:51;21.40;98.60
8002;DHT22;4046;48.774;8.732;2023-05-24T13:10:18;21.40;98.60
8002;DHT22;4046;48.774;8.732;2023-05-24T13:12:47;21.40;98.70
8002;DHT22;4046;48.774;8.732;2023-05-24T13:15:13;21.40;98.80
8002;DHT22;4046;48.774;8.732;2023-05-24T13:17:40;21.40;98.40
8002;DHT22;4046;48.774;8.732;2023-05-24T13:20:07;21.40;98.10
8002;DHT22;4046;48.774;8.732;2023-05-24T13:22:37;21.40;98.30
8002;DHT22;4046;48.774;8.732;2023-05-24T13:25:07;21.40;98.30
8002;DHT22;4046;48.774;8.732;2023-05-24T13:27:34;21.50;98.20
8002;DHT22;4046;48.774;8.732;2023-05-24T13:30:01;21.50;98.30
8002;DHT22;4046;48.774;8.732;2023-05-24T13:32:27;21.50;98.30
8002;DHT22;4046;48.774;8.732;2023-05-24T13:34:53;21.50;98.30
8002;DHT22;4046;48.774;8.732;2023-05-24T13:37:20;21.50;98.10
8002;DHT22;4046;48.774;8.732;2023-05-24T13:39:46;21.50;98.20
8002;DHT22;4046;48.774;8.732;2023-05-24T13:42:12;21.50;98.20
8002;DHT22;4046;48.774;8.732;2023-05-24T13:44:39;21.50;98.20
8002;DHT22;4046;48.774;8.732;2023-05-24T13:47:06;21.50;98.20
8002;DHT22;4046;48.774;8.732;2023-05-24T13:49:33;21.50;98.10
8002;DHT22;4046;48.774;8.732;2023-05-24T13:52:00;21.50;98.10
8002;DHT22;4046;48.774;8.732;2023-05-24T13:54:26;21.50;98.20
8002;DHT22;4046;48.774;8.732;2023-05-24T13:56:53;21.50;98.10
8002;DHT22;4046;48.774;8.732;2023-05-24T13:59:22;21.60;97.70
8002;DHT22;4046;48.774;8.732;2023-05-24T14:01:48;21.40;97.60
8002;DHT22;4046;48.774;8.732;2023-05-24T14:04:15;21.50;97.70
8002;DHT22;4046;48.774;8.732;2023-05-24T14:06:42;21.50;97.70
8002;DHT22;4046;48.774;8.732;2023-05-24T14:09:08;21.50;97.80
8002;DHT22;4046;48.774;8.732;2023-05-24T14:11:35;21.50;97.70
8002;DHT22;4046;48.774;8.732;2023-05-24T14:14:02;21.40;97.70
8002;DHT22;4046;48.774;8.732;2023-05-24T14:16:29;21.40;97.80
8002;DHT22;4046;48.774;8.732;2023-05-24T14:18:55;21.40;97.80
8002;DHT22;4046;48.774;8.732;2023-05-24T14:21:21;21.40;97.80
8002;DHT22;4046;48.774;8.732;2023-05-24T14:23:48;21.50;97.90
8002;DHT22;4046;48.774;8.732;2023-05-24T14:26:16;21.40;97.70
8002;DHT22;4046;48.774;8.732;2023-05-24T14:28:43;21.40;97.80
8002;DHT22;4046;48.774;8.732;2023-05-24T14:31:09;21.40;97.80
8002;DHT22;4046;48.774;8.732;2023-05-24T14:33:35;21.50;97.90
8002;DHT22;4046;48.774;8.732;2023-05-24T14:36:02;21.50;97.80
8002;DHT22;4046;48.774;8.732;2023-05-24T14:38:29;21.50;97.90
8002;DHT22;4046;48.774;8.732;2023-05-24T14:40:56;21.50;97.80
8002;DHT22;4046;48.774;8.732;2023-05-24T14:43:24;21.40;97.80
8002;DHT22;4046;48.774;8.732;2023-05-24T14:45:50;21.40;97.80
8002;DHT22;4046;48.774;8.732;2023-05-24T14:48:17;21.40;97.80
8002;DHT22;4046;48.774;8.732;2023-05-24T14:50:43;21.50;97.90
8002;DHT22;4046;48.774;8.732;2023-05-24T14:53:10;21.50;98.00
8002;DHT22;4046;48.774;8.732;2023-05-24T14:55:40;21.40;97.90
8002;DHT22;4046;48.774;8.732;2023-05-24T14:58:07;21.40;97.80
8002;DHT22;4046;48.774;8.732;2023-05-24T15:00:37;21.40;97.80
8002;DHT22;4046;48.774;8.732;2023-05-24T15:03:04;21.40;97.60
8002;DHT22;4046;48.774;8.732;2023-05-24T15:05:34;21.50;97.90
8002;DHT22;4046;48.774;8.732;2023-05-24T15:08:00;21.50;97.80
8002;DHT22;4046;48.774;8.732;2023-05-24T15:10:26;21.40;97.80
8002;DHT22;4046;48.774;8.732;2023-05-24T15:12:53;21.40;97.60
8002;DHT22;4046;48.774;8.732;2023-05-24T15:15:21;21.40;97.70
8002;DHT22;4046;48.774;8.732;2023-05-24T15:17:47;21.40;97.80
8002;DHT22;4046;48.774;8.732;2023-05-24T15:20:13;21.40;97.70
8002;DHT22;4046;48.774;8.732;2023-05-24T15:22:40;21.40;97.70
8002;DHT22;4046;48.774;8.732;2023-05-24T15:25:06;21.40;97.70
8002;DHT22;4046;48.774;8.732;2023-05-24T15:27:33;21.40;97.70
8002;DHT22;4046;48.774;8.732;2023-05-24T15:29:59;21.40;97.70
8002;DHT22;4046;48.774;8.732;2023-05-24T15:32:25;21.40;97.60
8002;DHT22;4046;48.774;8.732;2023-05-24T15:34:51;21.50;97.60
8002;DHT22;4046;48.774;8.732;2023-05-24T15:37:18;21.40;97.50
8002;DHT22;4046;48.774;8.732;2023-05-24T15:39:47;21.40;97.60
8002;DHT22;4046;48.774;8.732;2023-05-24T15:42:14;21.40;97.50
8002;DHT22;4046;48.774;8.732;2023-05-24T15:44:41;21.40;97.50
8002;DHT22;4046;48.774;8.732;2023-05-24T15:47:07;21.40;97.50
8002;DHT22;4046;48.774;8.732;2023-05-24T15:49:33;21.40;97.50
8002;DHT22;4046;48.774;8.732;2023-05-24T15:51:59;21.40;97.40
8002;DHT22;4046;48.774;8.732;2023-05-24T15:54:26;21.40;97.40
8002;DHT22;4046;48.774;8.732;2023-05-24T15:56:52;21.40;97.50
8002;DHT22;4046;48.774;8.732;2023-05-24T15:59:18;21.40;97.40
8002;DHT22;4046;48.774;8.732;2023-05-24T16:01:44;21.40;97.80
8002;DHT22;4046;48.774;8.732;2023-05-24T16:04:10;21.40;97.50
8002;DHT22;4046;48.774;8.732;2023-05-24T16:06:37;21.40;97.40
8002;DHT22;4046;48.774;8.732;2023-05-24T16:09:03;21.40;97.40
8002;DHT22;4046;48.774;8.732;2023-05-24T16:11:31;21.30;97.20
8002;DHT22;4046;48.774;8.732;2023-05-24T16:13:58;21.30;97.30
8002;DHT22;4046;48.774;8.732;2023-05-24T16:16:25;21.30;97.40